sensor_id;sensor_type;location;lat;lon;timestamp;temperature;humidity
14873;DHT22;7528;48.576;19.122;2023-07-16T00:00:58;23.40;77.50
14873;DHT22;7528;48.576;19.122;2023-07-16T00:06:02;23.30;77.70
14873;DHT22;7528;48.576;19.122;2023-07-16T00:11:05;23.30;78.00
14873;DHT22;7528;48.576;19.122;2023-07-16T00:16:07;23.20;78.00
14873;DHT22;7528;48.576;19.122;2023-07-16T00:21:11;23.20;78.10
14873;DHT22;7528;48.576;19.122;2023-07-16T00:26:17;23.20;78.30
14873;DHT22;7528;48.576;19.122;2023-07-16T00:31:22;23.10;78.70
14873;DHT22;7528;48.576;19.122;2023-07-16T00:36:26;23.00;78.90
14873;DHT22;7528;48.576;19.122;2023-07-16T00:41:29;23.00;79.20
14873;DHT22;7528;48.576;19.122;2023-07-16T00:46:32;22.90;79.20
14873;DHT22;7528;48.576;19.122;2023-07-16T00:51:37;22.90;79.20
14873;DHT22;7528;48.576;19.122;2023-07-16T00:56:39;22.80;79.40
14873;DHT22;7528;48.576;19.122;2023-07-16T01:01:42;22.80;79.70
14873;DHT22;7528;48.576;19.122;2023-07-16T01:06:52;22.70;80.00
14873;DHT22;7528;48.576;19.122;2023-07-16T01:11:57;22.60;79.90
14873;DHT22;7528;48.576;19.122;2023-07-16T01:17:03;22.60;80.10
14873;DHT22;7528;48.576;19.122;2023-07-16T01:28:31;22.50;80.30
14873;DHT22;7528;48.576;19.122;2023-07-16T01:33:37;22.50;80.60
14873;DHT22;7528;48.576;19.122;2023-07-16T01:38:41;22.40;80.70
14873;DHT22;7528;48.576;19.122;2023-07-16T01:43:43;22.40;81.10
14873;DHT22;7528;48.576;19.122;2023-07-16T01:48:47;22.30;81.30
14873;DHT22;7528;48.576;19.122;2023-07-16T01:53:50;22.30;81.50
14873;DHT22;7528;48.576;19.122;2023-07-16T01:58:52;22.20;81.60
14873;DHT22;7528;48.576;19.122;2023-07-16T02:03:57;22.20;81.90
14873;DHT22;7528;48.576;19.122;2023-07-16T02:09:01;22.10;81.70
14873;DHT22;7528;48.576;19.122;2023-07-16T02:14:03;22.10;81.90
14873;DHT22;7528;48.576;19.122;2023-07-16T02:19:08;22.00;81.70
14873;DHT22;7528;48.576;19.122;2023-07-16T02:24:10;22.00;81.80
14873;DHT22;7528;48.576;19.122;2023-07-16T02:29:13;21.90;81.90
14873;DHT22;7528;48.576;19.122;2023-07-16T02:34:17;21.90;82.30
14873;DHT22;7528;48.576;19.122;2023-07-16T02:39:23;21.90;82.40
14873;DHT22;7528;48.576;19.122;2023-07-16T02:44:26;21.80;82.40
14873;DHT22;7528;48.576;19.122;2023-07-16T02:49:30;21.80;82.70
14873;DHT22;7528;48.576;19.122;2023-07-16T02:54:33;21.80;83.20
14873;DHT22;7528;48.576;19.122;2023-07-16T02:59:37;21.70;82.90
14873;DHT22;7528;48.576;19.122;2023-07-16T03:04:41;21.70;83.10
14873;DHT22;7528;48.576;19.122;2023-07-16T03:09:43;21.60;82.90
14873;DHT22;7528;48.576;19.122;2023-07-16T03:14:46;21.60;83.00
14873;DHT22;7528;48.576;19.122;2023-07-16T03:19:51;21.60;83.20
14873;DHT22;7528;48.576;19.122;2023-07-16T03:24:53;21.60;82.90
14873;DHT22;7528;48.576;19.122;2023-07-16T03:29:56;21.50;83.00
14873;DHT22;7528;48.576;19.122;2023-07-16T03:35:01;21.50;83.40
14873;DHT22;7528;48.576;19.122;2023-07-16T03:40:13;21.50;83.70
14873;DHT22;7528;48.576;19.122;2023-07-16T03:45:19;21.50;83.90
14873;DHT22;7528;48.576;19.122;2023-07-16T03:50:23;21.50;83.90
14873;DHT22;7528;48.576;19.122;2023-07-16T03:55:25;21.50;84.10
14873;DHT22;7528;48.576;19.122;2023-07-16T04:00:30;21.50;84.30
14873;DHT22;7528;48.576;19.122;2023-07-16T04:05:34;21.50;84.50
14873;DHT22;7528;48.576;19.122;2023-07-16T04:10:37;21.50;84.40
14873;DHT22;7528;48.576;19.122;2023-07-16T04:15:40;21.50;84.60
14873;DHT22;7528;48.576;19.122;2023-07-16T04:20:45;21.50;84.90
14873;DHT22;7528;48.576;19.122;2023-07-16T04:25:48;21.50;85.50
14873;DHT22;7528;48.576;19.122;2023-07-16T04:30:53;21.60;85.90
14873;DHT22;7528;48.576;19.122;2023-07-16T04:35:57;21.60;86.00
14873;DHT22;7528;48.576;19.122;2023-07-16T04:40:59;21.70;86.70
14873;DHT22;7528;48.576;19.122;2023-07-16T04:46:02;21.70;86.80
14873;DHT22;7528;48.576;19.122;2023-07-16T04:51:06;21.80;87.10
14873;DHT22;7528;48.576;19.122;2023-07-16T04:56:11;21.90;87.50
14873;DHT22;7528;48.576;19.122;2023-07-16T05:01:14;21.90;88.90
14873;DHT22;7528;48.576;19.122;2023-07-16T05:06:18;22.00;89.50
14873;DHT22;7528;48.576;19.122;2023-07-16T05:11:21;22.10;89.40
14873;DHT22;7528;48.576;19.122;2023-07-16T05:16:24;22.20;89.40
14873;DHT22;7528;48.576;19.122;2023-07-16T05:21:28;22.20;88.50
14873;DHT22;7528;48.576;19.122;2023-07-16T05:26:31;22.30;88.20
14873;DHT22;7528;48.576;19.122;2023-07-16T05:31:34;22.40;88.20
14873;DHT22;7528;48.576;19.122;2023-07-16T05:36:42;22.50;88.20
14873;DHT22;7528;48.576;19.122;2023-07-16T05:41:45;22.60;88.40
14873;DHT22;7528;48.576;19.122;2023-07-16T05:46:47;22.70;89.30
14873;DHT22;7528;48.576;19.122;2023-07-16T05:51:51;22.80;88.70
14873;DHT22;7528;48.576;19.122;2023-07-16T05:56:53;22.90;88.20
14873;DHT22;7528;48.576;19.122;2023-07-16T06:01:56;23.10;87.40
14873;DHT22;7528;48.576;19.122;2023-07-16T06:07:00;23.20;87.10
14873;DHT22;7528;48.576;19.122;2023-07-16T06:12:03;23.20;86.70
14873;DHT22;7528;48.576;19.122;2023-07-16T06:17:06;23.40;86.60
14873;DHT22;7528;48.576;19.122;2023-07-16T06:22:10;23.60;86.10
14873;DHT22;7528;48.576;19.122;2023-07-16T06:27:13;23.70;86.60
14873;DHT22;7528;48.576;19.122;2023-07-16T06:32:15;23.70;85.40
14873;DHT22;7528;48.576;19.122;2023-07-16T06:37:19;23.90;84.30
14873;DHT22;7528;48.576;19.122;2023-07-16T06:42:24;24.00;83.40
14873;DHT22;7528;48.576;19.122;2023-07-16T06:47:27;24.20;83.70
14873;DHT22;7528;48.576;19.122;2023-07-16T06:52:31;24.30;83.70
14873;DHT22;7528;48.576;19.122;2023-07-16T06:57:33;24.50;83.50
14873;DHT22;7528;48.576;19.122;2023-07-16T07:02:36;24.70;81.80
14873;DHT22;7528;48.576;19.122;2023-07-16T07:07:40;24.90;80.80
14873;DHT22;7528;48.576;19.122;2023-07-16T07:12:44;25.10;78.90
14873;DHT22;7528;48.576;19.122;2023-07-16T07:17:47;25.30;75.30
14873;DHT22;7528;48.576;19.122;2023-07-16T07:22:52;25.60;74.20
14873;DHT22;7528;48.576;19.122;2023-07-16T07:27:55;25.70;74.10
14873;DHT22;7528;48.576;19.122;2023-07-16T07:32:57;25.90;71.90
14873;DHT22;7528;48.576;19.122;2023-07-16T07:38:01;26.20;73.00
14873;DHT22;7528;48.576;19.122;2023-07-16T07:43:04;26.50;71.10
14873;DHT22;7528;48.576;19.122;2023-07-16T07:48:06;26.60;69.70
14873;DHT22;7528;48.576;19.122;2023-07-16T07:53:14;26.90;70.90
14873;DHT22;7528;48.576;19.122;2023-07-16T07:58:19;27.10;69.50
14873;DHT22;7528;48.576;19.122;2023-07-16T08:03:23;27.30;68.00
14873;DHT22;7528;48.576;19.122;2023-07-16T08:08:27;27.50;66.90
14873;DHT22;7528;48.576;19.122;2023-07-16T08:13:30;27.70;67.50
14873;DHT22;7528;48.576;19.122;2023-07-16T08:18:33;28.00;65.60
14873;DHT22;7528;48.576;19.122;2023-07-16T08:23:38;28.20;65.50
14873;DHT22;7528;48.576;19.122;2023-07-16T08:28:42;28.50;65.00
14873;DHT22;7528;48.576;19.122;2023-07-16T08:33:47;28.80;63.20
14873;DHT22;7528;48.576;19.122;2023-07-16T08:38:55;29.00;63.50
14873;DHT22;7528;48.576;19.122;2023-07-16T08:43:59;29.20;61.30
14873;DHT22;7528;48.576;19.122;2023-07-16T08:49:02;29.50;61.90
14873;DHT22;7528;48.576;19.122;2023-07-16T08:54:07;29.70;60.50
14873;DHT22;7528;48.576;19.122;2023-07-16T08:59:10;30.00;59.20
14873;DHT22;7528;48.576;19.122;2023-07-16T09:04:13;30.20;59.20
14873;DHT22;7528;48.576;19.122;2023-07-16T09:09:22;30.50;58.10
14873;DHT22;7528;48.576;19.122;2023-07-16T09:14:25;31.00;58.40
14873;DHT22;7528;48.576;19.122;2023-07-16T09:19:32;31.30;56.80
14873;DHT22;7528;48.576;19.122;2023-07-16T09:24:47;31.60;56.10
14873;DHT22;7528;48.576;19.122;2023-07-16T09:29:51;31.80;55.10
14873;DHT22;7528;48.576;19.122;2023-07-16T09:34:54;31.90;55.70
14873;DHT22;7528;48.576;19.122;2023-07-16T09:39:58;32.10;55.80
14873;DHT22;7528;48.576;19.122;2023-07-16T09:45:01;32.20;54.60
14873;DHT22;7528;48.576;19.122;2023-07-16T09:50:05;32.20;54.50
14873;DHT22;7528;48.576;19.122;2023-07-16T09:55:10;32.30;54.90
14873;DHT22;7528;48.576;19.122;2023-07-16T10:00:16;32.50;53.80
14873;DHT22;7528;48.576;19.122;2023-07-16T10:05:23;32.70;52.90
14873;DHT22;7528;48.576;19.122;2023-07-16T10:10:54;32.80;53.90
14873;DHT22;7528;48.576;19.122;2023-07-16T10:22:55;33.00;52.50
14873;DHT22;7528;48.576;19.122;2023-07-16T10:28:00;33.00;51.60
14873;DHT22;7528;48.576;19.122;2023-07-16T10:33:03;33.10;51.20
14873;DHT22;7528;48.576;19.122;2023-07-16T10:38:14;33.30;50.80
14873;DHT22;7528;48.576;19.122;2023-07-16T10:43:21;33.30;49.70
14873;DHT22;7528;48.576;19.122;2023-07-16T10:48:24;33.30;49.90
14873;DHT22;7528;48.576;19.122;2023-07-16T10:53:28;33.30;49.40
14873;DHT22;7528;48.576;19.122;2023-07-16T10:58:33;33.40;49.60
14873;DHT22;7528;48.576;19.122;2023-07-16T11:03:38;33.50;49.20
14873;DHT22;7528;48.576;19.122;2023-07-16T11:08:41;33.70;48.90
14873;DHT22;7528;48.576;19.122;2023-07-16T11:13:45;33.90;47.30
14873;DHT22;7528;48.576;19.122;2023-07-16T11:18:48;33.90;46.90
14873;DHT22;7528;48.576;19.122;2023-07-16T11:23:51;34.10;48.90
14873;DHT22;7528;48.576;19.122;2023-07-16T11:28:55;34.30;48.90
14873;DHT22;7528;48.576;19.122;2023-07-16T11:33:59;34.50;47.70
14873;DHT22;7528;48.576;19.122;2023-07-16T11:39:03;34.40;46.30
14873;DHT22;7528;48.576;19.122;2023-07-16T11:44:08;34.40;45.40
14873;DHT22;7528;48.576;19.122;2023-07-16T11:49:11;34.30;45.40
14873;DHT22;7528;48.576;19.122;2023-07-16T11:54:13;34.50;46.40
14873;DHT22;7528;48.576;19.122;2023-07-16T11:59:17;34.50;43.80
14873;DHT22;7528;48.576;19.122;2023-07-16T12:04:21;34.60;43.20
14873;DHT22;7528;48.576;19.122;2023-07-16T12:09:24;34.70;44.50
14873;DHT22;7528;48.576;19.122;2023-07-16T12:14:27;34.70;44.60
14873;DHT22;7528;48.576;19.122;2023-07-16T12:19:30;34.70;42.00
14873;DHT22;7528;48.576;19.122;2023-07-16T12:24:32;34.80;43.60
14873;DHT22;7528;48.576;19.122;2023-07-16T12:29:36;34.70;42.50
14873;DHT22;7528;48.576;19.122;2023-07-16T12:34:38;34.90;45.10
14873;DHT22;7528;48.576;19.122;2023-07-16T12:39:41;34.90;44.50
14873;DHT22;7528;48.576;19.122;2023-07-16T12:44:44;34.80;44.00
14873;DHT22;7528;48.576;19.122;2023-07-16T12:49:47;34.70;43.30
14873;DHT22;7528;48.576;19.122;2023-07-16T12:54:50;35.00;43.50
14873;DHT22;7528;48.576;19.122;2023-07-16T12:59:53;35.20;43.70
14873;DHT22;7528;48.576;19.122;2023-07-16T13:04:56;35.20;42.10
14873;DHT22;7528;48.576;19.122;2023-07-16T13:09:58;35.00;43.50
14873;DHT22;7528;48.576;19.122;2023-07-16T13:15:02;35.00;42.90
14873;DHT22;7528;48.576;19.122;2023-07-16T13:20:06;35.10;43.40
14873;DHT22;7528;48.576;19.122;2023-07-16T13:25:10;35.00;43.20
14873;DHT22;7528;48.576;19.122;2023-07-16T13:30:15;35.00;41.70
14873;DHT22;7528;48.576;19.122;2023-07-16T13:35:18;34.80;43.30
14873;DHT22;7528;48.576;19.122;2023-07-16T13:40:20;34.90;44.40
14873;DHT22;7528;48.576;19.122;2023-07-16T13:45:25;34.80;42.20
14873;DHT22;7528;48.576;19.122;2023-07-16T13:50:27;34.80;42.30
14873;DHT22;7528;48.576;19.122;2023-07-16T13:55:29;34.70;43.70
14873;DHT22;7528;48.576;19.122;2023-07-16T14:00:33;34.60;43.90
14873;DHT22;7528;48.576;19.122;2023-07-16T14:05:36;34.70;43.40
14873;DHT22;7528;48.576;19.122;2023-07-16T14:10:39;34.90;44.30
14873;DHT22;7528;48.576;19.122;2023-07-16T14:15:43;34.90;43.50
14873;DHT22;7528;48.576;19.122;2023-07-16T14:20:46;34.60;44.60
14873;DHT22;7528;48.576;19.122;2023-07-16T14:25:49;34.60;44.90
14873;DHT22;7528;48.576;19.122;2023-07-16T14:30:53;34.50;44.50
14873;DHT22;7528;48.576;19.122;2023-07-16T14:35:55;34.40;44.80
14873;DHT22;7528;48.576;19.122;2023-07-16T14:40:58;34.40;45.80
14873;DHT22;7528;48.576;19.122;2023-07-16T14:46:02;34.40;45.50
14873;DHT22;7528;48.576;19.122;2023-07-16T14:51:05;34.40;45.60
14873;DHT22;7528;48.576;19.122;2023-07-16T14:56:08;34.50;44.80
14873;DHT22;7528;48.576;19.122;2023-07-16T15:01:13;34.30;45.40
14873;DHT22;7528;48.576;19.122;2023-07-16T15:06:16;34.30;44.60
14873;DHT22;7528;48.576;19.122;2023-07-16T15:11:18;34.10;44.40
14873;DHT22;7528;48.576;19.122;2023-07-16T15:16:22;34.30;44.70
14873;DHT22;7528;48.576;19.122;2023-07-16T15:21:25;34.20;46.00
14873;DHT22;7528;48.576;19.122;2023-07-16T15:26:27;34.10;46.00
14873;DHT22;7528;48.576;19.122;2023-07-16T15:31:31;34.10;46.40
14873;DHT22;7528;48.576;19.122;2023-07-16T15:41:55;34.10;46.00
14873;DHT22;7528;48.576;19.122;2023-07-16T15:46:59;34.20;46.60
14873;DHT22;7528;48.576;19.122;2023-07-16T15:52:15;34.20;45.90
14873;DHT22;7528;48.576;19.122;2023-07-16T15:57:18;34.10;46.90
14873;DHT22;7528;48.576;19.122;2023-07-16T16:02:22;34.00;46.70
14873;DHT22;7528;48.576;19.122;2023-07-16T16:07:24;33.80;47.00
14873;DHT22;7528;48.576;19.122;2023-07-16T16:12:26;33.90;47.10
14873;DHT22;7528;48.576;19.122;2023-07-16T16:17:31;33.80;47.20
14873;DHT22;7528;48.576;19.122;2023-07-16T16:22:33;33.90;47.90
14873;DHT22;7528;48.576;19.122;2023-07-16T16:27:43;33.70;47.20
14873;DHT22;7528;48.576;19.122;2023-07-16T16:38:17;33.70;47.90
14873;DHT22;7528;48.576;19.122;2023-07-16T16:43:21;33.70;47.80
14873;DHT22;7528;48.576;19.122;2023-07-16T16:48:24;33.50;48.70
14873;DHT22;7528;48.576;19.122;2023-07-16T16:53:28;33.50;50.40
14873;DHT22;7528;48.576;19.122;2023-07-16T16:58:31;33.30;49.60
14873;DHT22;7528;48.576;19.122;2023-07-16T17:03:33;33.30;49.70
14873;DHT22;7528;48.576;19.122;2023-07-16T17:08:37;33.20;51.10
14873;DHT22;7528;48.576;19.122;2023-07-16T17:13:39;33.10;51.20
14873;DHT22;7528;48.576;19.122;2023-07-16T17:18:41;33.10;51.40
14873;DHT22;7528;48.576;19.122;2023-07-16T17:23:45;33.00;50.80
14873;DHT22;7528;48.576;19.122;2023-07-16T17:28:47;32.90;51.90
14873;DHT22;7528;48.576;19.122;2023-07-16T17:33:50;32.90;52.50
14873;DHT22;7528;48.576;19.122;2023-07-16T17:38:54;32.70;53.10
14873;DHT22;7528;48.576;19.122;2023-07-16T17:43:56;32.60;53.50
14873;DHT22;7528;48.576;19.122;2023-07-16T17:48:58;32.50;54.70
14873;DHT22;7528;48.576;19.122;2023-07-16T17:54:03;32.30;54.50
14873;DHT22;7528;48.576;19.122;2023-07-16T17:59:06;32.20;54.50
14873;DHT22;7528;48.576;19.122;2023-07-16T18:04:11;32.00;54.90
14873;DHT22;7528;48.576;19.122;2023-07-16T18:09:14;31.90;55.70
14873;DHT22;7528;48.576;19.122;2023-07-16T18:14:17;31.70;57.00
14873;DHT22;7528;48.576;19.122;2023-07-16T18:19:19;31.60;57.10
14873;DHT22;7528;48.576;19.122;2023-07-16T18:24:23;31.50;56.90
14873;DHT22;7528;48.576;19.122;2023-07-16T18:29:25;31.30;57.00
14873;DHT22;7528;48.576;19.122;2023-07-16T18:34:28;31.30;57.10
14873;DHT22;7528;48.576;19.122;2023-07-16T18:39:32;31.10;57.50
14873;DHT22;7528;48.576;19.122;2023-07-16T18:44:35;31.00;58.00
14873;DHT22;7528;48.576;19.122;2023-07-16T18:49:37;30.90;58.80
14873;DHT22;7528;48.576;19.122;2023-07-16T18:54:41;30.80;59.20
14873;DHT22;7528;48.576;19.122;2023-07-16T18:59:44;30.60;59.70
14873;DHT22;7528;48.576;19.122;2023-07-16T19:04:46;30.50;59.90
14873;DHT22;7528;48.576;19.122;2023-07-16T19:09:50;30.40;60.50
14873;DHT22;7528;48.576;19.122;2023-07-16T19:14:52;30.20;61.20
14873;DHT22;7528;48.576;19.122;2023-07-16T19:19:58;30.10;61.70
14873;DHT22;7528;48.576;19.122;2023-07-16T19:25:02;30.00;62.30
14873;DHT22;7528;48.576;19.122;2023-07-16T19:30:05;29.90;62.40
14873;DHT22;7528;48.576;19.122;2023-07-16T19:35:08;29.70;63.10
14873;DHT22;7528;48.576;19.122;2023-07-16T19:40:13;29.60;63.70
14873;DHT22;7528;48.576;19.122;2023-07-16T19:45:16;29.50;63.50
14873;DHT22;7528;48.576;19.122;2023-07-16T19:50:18;29.40;63.70
14873;DHT22;7528;48.576;19.122;2023-07-16T19:55:22;29.30;63.60
14873;DHT22;7528;48.576;19.122;2023-07-16T20:00:25;29.20;64.20
14873;DHT22;7528;48.576;19.122;2023-07-16T20:05:27;29.10;64.30
14873;DHT22;7528;48.576;19.122;2023-07-16T20:10:31;29.00;64.60
14873;DHT22;7528;48.576;19.122;2023-07-16T20:15:33;28.90;65.30
14873;DHT22;7528;48.576;19.122;2023-07-16T20:20:36;28.80;65.50
14873;DHT22;7528;48.576;19.122;2023-07-16T20:25:41;28.70;65.90
14873;DHT22;7528;48.576;19.122;2023-07-16T20:30:44;28.60;66.50
14873;DHT22;7528;48.576;19.122;2023-07-16T20:35:47;28.50;67.00
14873;DHT22;7528;48.576;19.122;2023-07-16T20:40:50;28.50;67.50
14873;DHT22;7528;48.576;19.122;2023-07-16T20:45:53;28.40;68.00
14873;DHT22;7528;48.576;19.122;2023-07-16T20:50:55;28.30;68.10
14873;DHT22;7528;48.576;19.122;2023-07-16T20:55:59;28.20;68.50
14873;DHT22;7528;48.576;19.122;2023-07-16T21:01:02;28.10;68.90
14873;DHT22;7528;48.576;19.122;2023-07-16T21:06:05;27.90;69.30
14873;DHT22;7528;48.576;19.122;2023-07-16T21:11:09;27.90;69.80
14873;DHT22;7528;48.576;19.122;2023-07-16T21:16:12;27.80;70.00
14873;DHT22;7528;48.576;19.122;2023-07-16T21:21:14;27.70;70.20
14873;DHT22;7528;48.576;19.122;2023-07-16T21:26:18;27.60;70.50
14873;DHT22;7528;48.576;19.122;2023-07-16T21:31:20;27.60;71.00
14873;DHT22;7528;48.576;19.122;2023-07-16T21:36:23;27.50;71.10
14873;DHT22;7528;48.576;19.122;2023-07-16T21:41:27;27.40;71.40
14873;DHT22;7528;48.576;19.122;2023-07-16T21:46:30;27.30;71.60
14873;DHT22;7528;48.576;19.122;2023-07-16T21:51:32;27.20;72.10
14873;DHT22;7528;48.576;19.122;2023-07-16T21:56:36;27.10;72.20
14873;DHT22;7528;48.576;19.122;2023-07-16T22:01:39;27.10;72.70
14873;DHT22;7528;48.576;19.122;2023-07-16T22:06:42;27.00;73.00
14873;DHT22;7528;48.576;19.122;2023-07-16T22:11:46;27.00;73.60
14873;DHT22;7528;48.576;19.122;2023-07-16T22:16:48;26.90;73.70
14873;DHT22;7528;48.576;19.122;2023-07-16T22:21:51;26.80;73.90
14873;DHT22;7528;48.576;19.122;2023-07-16T22:26:55;26.70;73.80
14873;DHT22;7528;48.576;19.122;2023-07-16T22:31:59;26.70;73.90
14873;DHT22;7528;48.576;19.122;2023-07-16T22:37:02;26.60;74.20
14873;DHT22;7528;48.576;19.122;2023-07-16T22:42:07;26.50;74.40
14873;DHT22;7528;48.576;19.122;2023-07-16T22:47:10;26.40;74.60
14873;DHT22;7528;48.576;19.122;2023-07-16T22:52:13;26.40;75.00
14873;DHT22;7528;48.576;19.122;2023-07-16T22:57:16;26.30;75.30
14873;DHT22;7528;48.576;19.122;2023-07-16T23:02:19;26.30;75.70
14873;DHT22;7528;48.576;19.122;2023-07-16T23:07:23;26.20;75.70
14873;DHT22;7528;48.576;19.122;2023-07-16T23:12:27;26.20;75.90
14873;DHT22;7528;48.576;19.122;2023-07-16T23:17:30;26.10;76.10
14873;DHT22;7528;48.576;19.122;2023-07-16T23:22:32;26.00;76.30
14873;DHT22;7528;48.576;19.122;2023-07-16T23:27:36;26.00;76.60
14873;DHT22;7528;48.576;19.122;2023-07-16T23:32:39;25.90;77.00
14873;DHT22;7528;48.576;19.122;2023-07-16T23:37:41;25.80;77.20
14873;DHT22;7528;48.576;19.122;2023-07-16T23:42:46;25.80;77.40
14873;DHT22;7528;48.576;19.122;2023-07-16T23:47:49;25.70;77.90
14873;DHT22;7528;48.576;19.122;2023-07-16T23:52:52;25.60;77.90
14873;DHT22;7528;48.576;19.122;2023-07-16T23:57:56;25.60;78.10
